Impacts METAR Board
IDs:

KPSX - Palacios Muni, TX, US

Updated at: 0500 UTC 19 Aug 2019
Potential Impact None Slight Moderate High
Time 18/17Z 18/18Z 18/19Z 18/20Z 18/21Z 18/22Z 18/23Z 19/00Z 19/01Z 19/02Z 19/03Z 19/04Z 19/05Z
Temp86 86 88 90 92 92 91 90 87 86 86 86 86
Dewpt78 79 78 77 77 76 76 76 77 77 76 77 77
Altim29.94 29.93 29.92 29.91 29.89 29.88 29.88 29.88 29.88 29.89 29.91 29.93 29.94
VIS1.25 8 10 10 10 10 10 10 10 10 10 10 10
CIG18 110 -- -- -- -- -- -- -- -- -- -- --
CoverOVCBKNCLRCLRCLRCLRCLRFEWFEWCLRFEWCLRFEW
FltCatIFRVFRVFRVFRVFRVFRVFRVFRVFRVFRVFRVFRVFR
WXRA------------------------
WDir220170170170170170160150150140150150150
WSpd12 7 10 14 15 11 13 11 8 10 9 7 8
WGst26 -- -- 19 19 18 -- -- -- -- -- -- --
Raw hourly METARs
KPSX 181658Z AUTO 22012G26KT 190V310 1 1/4SM RA FEW013 BKN018 OVC023 30/26 A2994 RMK AO2 PK WND 20026/1658 P0011 T03000256
KPSX 181753Z AUTO 17007KT 8SM FEW044 SCT070 BKN110 30/26 A2993 RMK AO2 PK WND 17031/1707 RAE37 TSB12E41 SLP135 P0053 60093 T03000261 10322 20272 51004
KPSX 181853Z AUTO 17010KT 10SM CLR 31/26 A2992 RMK AO2 SLP132 T03110256
KPSX 181953Z AUTO 17014G19KT 10SM CLR 32/25 A2991 RMK AO2 SLP126 T03220250
KPSX 182053Z AUTO 17015G19KT 10SM CLR 33/25 A2989 RMK AO2 SLP121 T03330250 58014
KPSX 182153Z AUTO 17011G18KT 10SM CLR 33/24 A2988 RMK AO2 SLP117 T03330244
KPSX 182253Z AUTO 16013KT 10SM CLR 33/24 A2988 RMK AO2 SLP117 T03280244
KPSX 182353Z AUTO 15011KT 10SM FEW023 32/24 A2988 RMK AO2 SLP119 T03220244 10333 20300 55002
KPSX 190053Z AUTO 15008KT 10SM FEW021 31/25 A2988 RMK AO2 SLP119 T03060250
KPSX 190153Z AUTO 14010KT 10SM CLR 30/25 A2989 RMK AO2 SLP122 T03000250
KPSX 190253Z AUTO 15009KT 10SM FEW022 30/24 A2991 RMK AO2 SLP127 T03000244 53008
KPSX 190353Z AUTO 15007KT 10SM CLR 30/25 A2993 RMK AO2 SLP134 T03000250
KPSX 190453Z AUTO 15008KT 10SM FEW023 30/25 A2994 RMK AO2 SLP137 T03000250



Page loaded:  05:25 UTC  |   10:25 PM Pacific  |   11:25 PM Mountain  |   12:25 AM Central  |   01:25 AM Eastern

 

ADVISORIES

FORECASTS

FORECASTS

OBSERVATIONS

USER TOOLS

ABOUT US